createdAt,value
2022-08-17T00:00:04.078Z,18.47
2022-08-17T00:01:00.340Z,18.55
2022-08-17T00:02:04.931Z,18.55
2022-08-17T00:03:02.824Z,18.50
2022-08-17T00:04:01.080Z,18.44
2022-08-17T00:05:04.370Z,18.47
2022-08-17T00:06:03.492Z,18.52
2022-08-17T00:07:01.887Z,18.52
2022-08-17T00:08:04.070Z,18.50
2022-08-17T00:09:02.470Z,18.47
2022-08-17T00:10:06.625Z,18.45
2022-08-17T00:11:04.864Z,18.44
2022-08-17T00:12:51.162Z,18.45
2022-08-17T00:13:06.693Z,18.44
2022-08-17T00:14:04.769Z,18.40
2022-08-17T00:15:10.458Z,18.40
2022-08-17T00:16:06.397Z,18.34
2022-08-17T00:17:04.876Z,18.28
2022-08-17T00:19:01.941Z,18.19
2022-08-17T00:19:08.764Z,18.10
2022-08-17T00:20:08.547Z,18.03
2022-08-17T00:21:10.552Z,17.94
2022-08-17T00:22:31.362Z,17.76
2022-08-17T00:23:09.361Z,17.67
2022-08-17T00:24:09.360Z,17.70
2022-08-17T00:25:07.819Z,17.79
2022-08-17T00:26:10.036Z,17.87
2022-08-17T00:27:07.566Z,17.92
2022-08-17T00:28:09.752Z,17.89
2022-08-17T00:29:09.958Z,17.94
2022-08-17T00:30:12.458Z,18.08
2022-08-17T00:31:08.759Z,18.18
2022-08-17T00:33:15.411Z,18.18
2022-08-17T00:33:16.500Z,18.16
2022-08-17T00:34:10.696Z,18.13
2022-08-17T00:35:13.132Z,18.07
2022-08-17T00:36:10.190Z,18.01
2022-08-17T00:37:12.378Z,17.98
2022-08-17T00:38:10.802Z,17.85
2022-08-17T00:39:10.989Z,17.59
2022-08-17T00:40:12.317Z,17.33
2022-08-17T00:41:13.539Z,17.23
2022-08-17T00:42:11.902Z,17.02
2022-08-17T00:43:12.218Z,16.94
2022-08-17T00:44:12.628Z,17.02
2022-08-17T00:45:14.843Z,17.05
2022-08-17T00:46:15.028Z,16.99
2022-08-17T00:47:15.226Z,16.93
2022-08-17T00:48:30.000Z,16.78
2022-08-17T00:49:14.933Z,16.65
2022-08-17T00:50:17.833Z,16.58
2022-08-17T00:51:16.389Z,16.51
2022-08-17T00:52:16.636Z,16.50
2022-08-17T00:53:16.807Z,16.49
2022-08-17T00:54:17.075Z,16.46
2022-08-17T00:55:16.497Z,16.41
2022-08-17T00:56:17.843Z,16.41
2022-08-17T00:57:18.005Z,16.57
2022-08-17T00:58:18.169Z,16.66
2022-08-17T00:59:17.714Z,16.86
2022-08-17T01:00:20.914Z,17.12
2022-08-17T01:01:21.185Z,17.41
2022-08-17T01:02:19.334Z,17.49
2022-08-17T01:03:19.529Z,17.46
2022-08-17T01:04:18.048Z,17.42
2022-08-17T01:05:21.415Z,17.33
2022-08-17T01:06:20.555Z,17.23
2022-08-17T01:07:18.933Z,17.02
2022-08-17T01:08:21.116Z,16.87
2022-08-17T01:09:19.501Z,16.79
2022-08-17T01:11:00.678Z,16.71
2022-08-17T01:11:21.141Z,16.58
2022-08-17T01:12:22.309Z,16.56
2022-08-17T01:13:22.507Z,16.51
2022-08-17T01:14:22.648Z,16.57
2022-08-17T01:15:24.261Z,16.78
2022-08-17T01:16:23.559Z,17.09
2022-08-17T01:17:21.820Z,17.46
2022-08-17T01:18:24.006Z,17.64
2022-08-17T01:19:24.178Z,17.74
2022-08-17T01:20:25.571Z,17.87
2022-08-17T01:21:22.985Z,17.90
2022-08-17T01:22:23.311Z,17.90
2022-08-17T01:23:23.624Z,17.92
2022-08-17T01:24:25.809Z,17.95
2022-08-17T01:25:26.046Z,17.94
2022-08-17T01:26:24.431Z,17.89
2022-08-17T01:27:24.734Z,17.86
2022-08-17T01:28:52.266Z,17.82
2022-08-17T01:29:26.288Z,17.74
2022-08-17T01:30:58.507Z,17.78
2022-08-17T01:31:26.891Z,17.80
2022-08-17T01:32:26.137Z,17.80
2022-08-17T01:33:26.440Z,17.82
2022-08-17T01:34:42.533Z,17.78
2022-08-17T01:35:29.840Z,17.71
2022-08-17T01:36:27.372Z,17.64
2022-08-17T01:37:29.541Z,17.57
2022-08-17T01:38:27.929Z,17.48
2022-08-17T01:39:30.162Z,17.45
2022-08-17T01:40:30.300Z,17.45
2022-08-17T01:41:30.505Z,17.46
2022-08-17T01:42:30.667Z,17.46
2022-08-17T01:43:32.825Z,17.42
2022-08-17T01:44:29.742Z,17.36
2022-08-17T01:45:31.894Z,17.23
2022-08-17T01:46:32.120Z,17.11
2022-08-17T01:47:30.627Z,16.83
2022-08-17T01:48:32.823Z,16.53
2022-08-17T01:49:33.012Z,16.29
2022-08-17T01:50:33.261Z,16.16
2022-08-17T01:51:33.451Z,16.16
2022-08-17T01:52:32.085Z,16.12
2022-08-17T01:53:32.397Z,16.00
2022-08-17T01:54:32.713Z,15.84
2022-08-17T01:55:33.029Z,15.72
2022-08-17T01:56:35.216Z,15.61
2022-08-17T01:57:33.621Z,15.55
2022-08-17T01:58:33.937Z,15.47
2022-08-17T01:59:34.254Z,15.49
2022-08-17T02:01:00.140Z,15.44
2022-08-17T02:01:37.752Z,15.42
2022-08-17T02:02:36.925Z,15.39
2022-08-17T02:03:35.464Z,15.33
2022-08-17T02:04:35.778Z,15.28
2022-08-17T02:05:36.086Z,15.25
2022-08-17T02:06:52.770Z,15.22
2022-08-17T02:07:59.907Z,15.19
2022-08-17T02:08:39.516Z,15.19
2022-08-17T02:09:39.302Z,15.21
2022-08-17T02:10:37.542Z,15.21
2022-08-17T02:11:38.878Z,15.19
2022-08-17T02:12:40.054Z,15.19
2022-08-17T02:13:38.447Z,15.15
2022-08-17T02:14:39.588Z,15.06
2022-08-17T02:15:40.997Z,15.02
2022-08-17T02:16:41.169Z,15.04
2022-08-17T02:17:41.352Z,15.07
2022-08-17T02:18:40.035Z,15.02
2022-08-17T02:19:41.173Z,15.04
2022-08-17T02:20:42.998Z,15.02
2022-08-17T02:21:42.758Z,14.99
2022-08-17T02:22:41.279Z,14.94
2022-08-17T02:23:43.465Z,14.91
2022-08-17T02:25:00.619Z,14.96
2022-08-17T02:25:43.140Z,15.02
2022-08-17T02:26:42.392Z,15.03
2022-08-17T02:27:42.733Z,15.04
2022-08-17T02:28:43.045Z,15.07
2022-08-17T02:29:46.349Z,15.04
2022-08-17T02:30:59.242Z,15.06
2022-08-17T02:31:44.964Z,15.09
2022-08-17T02:32:46.203Z,15.06
2022-08-17T02:33:44.462Z,15.00
2022-08-17T02:34:48.657Z,14.99
2022-08-17T02:35:47.865Z,14.96
2022-08-17T02:36:47.049Z,14.94
2022-08-17T02:37:48.953Z,14.91
2022-08-17T02:38:47.006Z,14.88
2022-08-17T02:39:47.209Z,14.85
2022-08-17T02:40:46.565Z,14.79
2022-08-17T02:41:48.767Z,14.78
2022-08-17T02:42:49.128Z,14.72
2022-08-17T02:43:49.141Z,14.70
2022-08-17T02:44:49.762Z,14.77
2022-08-17T02:45:49.635Z,14.85
2022-08-17T02:46:50.307Z,15.02
2022-08-17T02:47:50.479Z,15.15
2022-08-17T02:48:50.673Z,15.43
2022-08-17T02:49:55.520Z,15.95
2022-08-17T02:50:51.071Z,16.23
2022-08-17T02:51:51.279Z,16.36
2022-08-17T02:53:01.355Z,16.41
2022-08-17T02:53:53.160Z,16.42
2022-08-17T02:54:53.480Z,16.41
2022-08-17T02:55:50.757Z,16.36
2022-08-17T02:56:51.081Z,16.20
2022-08-17T02:57:51.535Z,16.04
2022-08-17T02:58:53.571Z,15.88
2022-08-17T02:59:54.851Z,15.73
2022-08-17T03:00:52.285Z,15.55
2022-08-17T03:01:52.633Z,15.36
2022-08-17T03:02:52.983Z,15.19
2022-08-17T03:03:53.184Z,15.07
2022-08-17T03:04:56.552Z,15.00
2022-08-17T03:05:53.856Z,14.94
2022-08-17T03:06:54.170Z,14.85
2022-08-17T03:07:54.484Z,14.72
2022-08-17T03:08:54.801Z,14.70
2022-08-17T03:09:57.090Z,14.69
2022-08-17T03:10:55.363Z,14.68
2022-08-17T03:11:56.644Z,14.65
2022-08-17T03:12:56.060Z,14.65
2022-08-17T03:13:57.259Z,14.65
2022-08-17T03:14:59.584Z,14.63
2022-08-17T03:15:58.351Z,14.62
2022-08-17T03:16:58.541Z,14.59
2022-08-17T03:17:59.195Z,14.55
2022-08-17T03:18:59.395Z,14.50
2022-08-17T03:19:59.726Z,14.44
2022-08-17T03:20:59.918Z,14.41
2022-08-17T03:22:00.098Z,14.41
2022-08-17T03:23:00.054Z,14.40
2022-08-17T03:23:59.169Z,14.37
2022-08-17T03:25:00.995Z,14.35
2022-08-17T03:25:59.723Z,14.36
2022-08-17T03:27:01.921Z,14.37
2022-08-17T03:28:02.100Z,14.37
2022-08-17T03:29:02.303Z,14.37
2022-08-17T03:30:01.829Z,14.36
2022-08-17T03:31:03.175Z,14.35
2022-08-17T03:32:03.383Z,14.37
2022-08-17T03:33:03.576Z,14.36
2022-08-17T03:34:03.784Z,14.35
2022-08-17T03:35:05.454Z,14.33
2022-08-17T03:36:03.273Z,14.32
2022-08-17T03:37:03.023Z,14.33
2022-08-17T03:38:03.347Z,14.48
2022-08-17T03:39:05.541Z,14.59
2022-08-17T03:40:05.578Z,14.68
2022-08-17T03:41:04.231Z,14.77
2022-08-17T03:42:04.558Z,14.84
2022-08-17T03:43:04.890Z,15.14
2022-08-17T03:44:05.227Z,15.44
2022-08-17T03:45:06.530Z,15.76
2022-08-17T03:46:10.800Z,15.86
2022-08-17T03:47:07.054Z,15.92
2022-08-17T03:48:06.327Z,15.92
2022-08-17T03:49:07.032Z,15.90
2022-08-17T03:50:10.842Z,15.76
2022-08-17T03:51:14.161Z,15.57
2022-08-17T03:52:10.235Z,15.39
2022-08-17T03:53:07.803Z,15.27
2022-08-17T03:54:08.019Z,15.18
2022-08-17T03:55:12.245Z,15.10
2022-08-17T03:56:08.666Z,15.00
2022-08-17T03:57:10.860Z,14.89
2022-08-17T03:58:10.145Z,14.84
2022-08-17T03:59:09.567Z,14.77
2022-08-17T04:00:11.745Z,14.72
2022-08-17T04:01:10.102Z,14.66
2022-08-17T04:02:12.233Z,14.60
2022-08-17T04:03:10.517Z,14.55
2022-08-17T04:04:10.870Z,14.53
2022-08-17T04:05:15.049Z,14.53
2022-08-17T04:06:11.498Z,14.54
2022-08-17T04:07:13.678Z,14.55
2022-08-17T04:08:12.092Z,14.58
2022-08-17T04:09:12.441Z,14.58
2022-08-17T04:10:16.627Z,14.55
2022-08-17T04:11:13.070Z,14.55
2022-08-17T04:12:15.346Z,14.54
2022-08-17T04:13:14.599Z,14.55
2022-08-17T04:14:13.915Z,14.53
2022-08-17T04:15:17.230Z,14.51
2022-08-17T04:16:14.425Z,14.53
2022-08-17T04:17:14.663Z,14.51
2022-08-17T04:18:14.927Z,14.51
2022-08-17T04:19:17.115Z,14.51
2022-08-17T04:20:16.249Z,14.59
2022-08-17T04:21:17.185Z,14.69
2022-08-17T04:22:31.131Z,14.81
2022-08-17T04:23:17.228Z,14.94
2022-08-17T04:24:16.555Z,15.03
2022-08-17T04:25:19.709Z,15.14
2022-08-17T04:26:52.011Z,15.31
2022-08-17T04:27:18.252Z,15.36
2022-08-17T04:28:19.436Z,15.39
2022-08-17T04:29:19.639Z,15.39
2022-08-17T04:30:21.158Z,15.37
2022-08-17T04:31:19.264Z,15.39
2022-08-17T04:32:58.557Z,15.37
2022-08-17T04:33:21.868Z,15.36
2022-08-17T04:34:21.049Z,15.35
2022-08-17T04:35:22.474Z,15.35
2022-08-17T04:36:21.917Z,15.33
2022-08-17T04:37:22.114Z,15.29
2022-08-17T04:38:22.296Z,15.28
2022-08-17T04:39:22.472Z,15.33
2022-08-17T04:40:23.156Z,15.35
2022-08-17T04:41:21.410Z,15.29
2022-08-17T04:42:21.757Z,15.28
2022-08-17T04:43:23.943Z,15.28
2022-08-17T04:44:36.830Z,15.29
2022-08-17T04:45:27.469Z,15.37
2022-08-17T04:46:23.813Z,15.43
2022-08-17T04:47:23.126Z,15.47
2022-08-17T04:48:29.801Z,15.57
2022-08-17T04:49:24.620Z,15.59
2022-08-17T04:50:25.802Z,15.68
2022-08-17T04:51:25.991Z,15.73
2022-08-17T04:52:29.835Z,15.76
2022-08-17T04:53:25.876Z,15.77
2022-08-17T04:54:27.084Z,15.82
2022-08-17T04:55:25.809Z,15.86
2022-08-17T04:56:25.882Z,15.86
2022-08-17T04:57:27.987Z,15.84
2022-08-17T04:58:28.192Z,15.86
2022-08-17T04:59:28.356Z,15.91
2022-08-17T05:00:28.552Z,15.94
2022-08-17T05:01:29.310Z,15.94
2022-08-17T05:02:29.421Z,15.98
2022-08-17T05:03:29.611Z,16.02
2022-08-17T05:04:33.966Z,16.09
2022-08-17T05:05:29.457Z,16.13
2022-08-17T05:06:30.642Z,16.20
2022-08-17T05:07:31.558Z,16.24
2022-08-17T05:08:31.273Z,16.32
2022-08-17T05:09:31.437Z,16.39
2022-08-17T05:10:29.973Z,16.47
2022-08-17T05:11:32.163Z,16.54
2022-08-17T05:12:30.466Z,16.61
2022-08-17T05:13:32.665Z,16.69
2022-08-17T05:14:33.876Z,16.76
2022-08-17T05:15:36.086Z,16.89
2022-08-17T05:16:33.217Z,16.93
2022-08-17T05:17:31.893Z,16.99
2022-08-17T05:18:34.094Z,17.06
2022-08-17T05:19:32.398Z,17.12
2022-08-17T05:20:36.570Z,17.19
2022-08-17T05:21:34.795Z,17.24
2022-08-17T05:22:35.119Z,17.30
2022-08-17T05:23:43.013Z,17.38
2022-08-17T05:24:38.430Z,17.46
2022-08-17T05:25:34.559Z,17.56
2022-08-17T05:26:34.492Z,17.67
2022-08-17T05:27:36.679Z,17.76
2022-08-17T05:28:37.379Z,17.86
2022-08-17T05:29:35.983Z,17.97
2022-08-17T05:30:37.467Z,18.07
2022-08-17T05:31:37.858Z,18.16
2022-08-17T05:32:40.340Z,18.20
2022-08-17T05:33:43.925Z,18.18
2022-08-17T05:34:37.585Z,18.25
2022-08-17T05:35:36.874Z,18.34
2022-08-17T05:36:44.115Z,18.33
2022-08-17T05:37:38.393Z,18.37
2022-08-17T05:38:40.743Z,18.63
2022-08-17T05:39:39.780Z,18.92
2022-08-17T05:40:38.189Z,18.92
2022-08-17T05:41:40.383Z,18.86
2022-08-17T05:42:38.686Z,18.81
2022-08-17T05:43:39.747Z,18.81
2022-08-17T05:44:39.162Z,18.84
2022-08-17T05:45:54.888Z,18.77
2022-08-17T05:46:42.554Z,18.66
2022-08-17T05:47:40.000Z,18.63
2022-08-17T05:48:43.185Z,18.65
2022-08-17T05:49:43.360Z,18.73
2022-08-17T05:50:40.813Z,18.80
2022-08-17T05:51:43.030Z,18.84
2022-08-17T05:52:43.229Z,18.89
2022-08-17T05:53:44.677Z,19.07
2022-08-17T05:54:41.876Z,19.33
2022-08-17T05:55:42.111Z,19.56
2022-08-17T05:56:42.357Z,19.71
2022-08-17T05:57:47.549Z,19.71
2022-08-17T05:58:44.716Z,19.79
2022-08-17T05:59:43.152Z,19.86
2022-08-17T06:00:45.410Z,19.77
2022-08-17T06:01:43.734Z,19.91
2022-08-17T06:02:48.219Z,20.14
2022-08-17T06:03:47.300Z,20.44
2022-08-17T06:04:44.507Z,20.63
2022-08-17T06:05:46.699Z,20.69
2022-08-17T06:06:45.008Z,20.80
2022-08-17T06:07:47.199Z,20.58
2022-08-17T06:08:48.370Z,20.67
2022-08-17T06:09:45.787Z,20.69
2022-08-17T06:10:46.081Z,20.85
2022-08-17T06:11:46.261Z,20.97
2022-08-17T06:12:46.539Z,20.87
2022-08-17T06:13:50.685Z,20.85
2022-08-17T06:14:47.040Z,20.90
2022-08-17T06:15:48.194Z,20.85
2022-08-17T06:16:48.623Z,20.82
2022-08-17T06:17:48.771Z,21.36
2022-08-17T06:18:51.244Z,21.76
2022-08-17T06:19:48.438Z,22.26
2022-08-17T06:20:48.691Z,22.55
2022-08-17T06:21:48.945Z,22.81
2022-08-17T06:22:51.311Z,22.91
2022-08-17T06:23:50.978Z,22.98
2022-08-17T06:24:51.725Z,23.31
2022-08-17T06:25:50.030Z,23.44
2022-08-17T06:26:52.192Z,23.48
2022-08-17T06:27:53.363Z,23.27
2022-08-17T06:28:51.816Z,23.10
2022-08-17T06:29:51.136Z,23.15
2022-08-17T06:30:59.610Z,23.40
2022-08-17T06:31:54.577Z,23.69
2022-08-17T06:32:53.766Z,23.73
2022-08-17T06:33:55.209Z,23.58
2022-08-17T06:34:52.541Z,23.44
2022-08-17T06:35:52.814Z,23.46
2022-08-17T06:36:53.102Z,23.81
2022-08-17T06:37:55.299Z,23.74
2022-08-17T06:38:56.748Z,23.59
2022-08-17T06:39:55.703Z,23.34
2022-08-17T06:40:56.362Z,23.21
2022-08-17T06:41:55.693Z,23.10
2022-08-17T06:43:05.338Z,23.00
2022-08-17T06:43:57.783Z,22.94
2022-08-17T06:44:55.633Z,22.76
2022-08-17T06:45:55.848Z,22.63
2022-08-17T06:46:58.047Z,22.51
2022-08-17T06:47:56.362Z,22.43
2022-08-17T06:48:57.573Z,22.36
2022-08-17T06:49:56.869Z,22.36
2022-08-17T06:50:57.250Z,22.36
2022-08-17T06:51:58.932Z,22.33
2022-08-17T06:52:59.949Z,22.35
2022-08-17T06:53:59.375Z,22.36
2022-08-17T06:54:58.173Z,22.51
2022-08-17T06:56:00.389Z,22.69
2022-08-17T06:57:00.581Z,22.80
2022-08-17T06:58:00.735Z,22.81
2022-08-17T06:59:02.247Z,22.65
2022-08-17T07:00:01.132Z,22.62
2022-08-17T07:01:01.884Z,22.41
2022-08-17T07:02:02.017Z,22.36
2022-08-17T07:03:00.556Z,22.33
2022-08-17T07:04:05.009Z,22.32
2022-08-17T07:05:01.923Z,22.13
2022-08-17T07:06:03.116Z,22.15
2022-08-17T07:07:03.305Z,22.25
2022-08-17T07:08:03.550Z,22.28
2022-08-17T07:09:04.227Z,22.45
2022-08-17T07:10:04.493Z,22.51
2022-08-17T07:11:04.593Z,22.57
2022-08-17T07:12:04.754Z,22.65
2022-08-17T07:13:05.452Z,22.76
2022-08-17T07:14:05.696Z,22.80
2022-08-17T07:15:05.880Z,22.88
2022-08-17T07:16:06.058Z,23.05
2022-08-17T07:17:06.263Z,23.12
2022-08-17T07:18:06.458Z,23.25
2022-08-17T07:19:07.163Z,23.28
2022-08-17T07:20:05.496Z,23.28
2022-08-17T07:21:05.699Z,23.41
2022-08-17T07:22:07.886Z,23.48
2022-08-17T07:23:08.072Z,23.55
2022-08-17T07:24:08.262Z,23.61
2022-08-17T07:25:06.838Z,23.58
2022-08-17T07:26:07.086Z,23.56
2022-08-17T07:27:09.268Z,23.54
2022-08-17T07:28:09.457Z,23.44
2022-08-17T07:29:09.635Z,23.34
2022-08-17T07:30:11.111Z,23.09
2022-08-17T07:31:10.525Z,23.28
2022-08-17T07:32:10.725Z,23.84
2022-08-17T07:33:12.540Z,24.48
2022-08-17T07:34:09.337Z,24.77
2022-08-17T07:35:11.774Z,24.80
2022-08-17T07:36:11.713Z,24.69
2022-08-17T07:37:11.906Z,24.78
2022-08-17T07:38:25.834Z,24.98
2022-08-17T07:39:13.283Z,25.04
2022-08-17T07:40:16.460Z,24.58
2022-08-17T07:41:11.225Z,24.84
2022-08-17T07:42:13.414Z,24.95
2022-08-17T07:43:19.925Z,24.81
2022-08-17T07:44:14.883Z,24.74
2022-08-17T07:45:12.352Z,24.66
2022-08-17T07:46:14.560Z,24.40
2022-08-17T07:47:14.753Z,24.51
2022-08-17T07:48:15.717Z,24.14
2022-08-17T07:49:15.191Z,24.01
2022-08-17T07:50:15.355Z,24.18
2022-08-17T07:51:14.050Z,24.63
2022-08-17T07:52:47.796Z,25.18
2022-08-17T07:53:19.461Z,25.87
2022-08-17T07:54:16.686Z,25.51
2022-08-17T07:55:16.878Z,25.43
2022-08-17T07:56:15.442Z,25.32
2022-08-17T07:57:15.691Z,25.40
2022-08-17T07:58:16.805Z,25.41
2022-08-17T07:59:18.162Z,25.50
2022-08-17T08:00:18.349Z,25.36
2022-08-17T08:01:17.802Z,25.18
2022-08-17T08:02:17.224Z,25.13
2022-08-17T08:03:18.370Z,25.65
2022-08-17T08:04:29.156Z,26.05
2022-08-17T08:05:48.671Z,26.43
2022-08-17T08:06:20.131Z,26.65
2022-08-17T08:07:18.576Z,27.03
2022-08-17T08:08:19.691Z,26.97
2022-08-17T08:09:21.075Z,27.17
2022-08-17T08:10:19.395Z,26.75
2022-08-17T08:11:21.782Z,26.77
2022-08-17T08:12:20.875Z,26.93
2022-08-17T08:13:20.307Z,26.96
2022-08-17T08:14:20.557Z,26.78
2022-08-17T08:15:20.802Z,26.58
2022-08-17T08:16:22.977Z,26.47
2022-08-17T08:17:22.168Z,25.99
2022-08-17T08:18:53.754Z,25.59
2022-08-17T08:19:22.860Z,25.08
2022-08-17T08:20:51.338Z,24.96
2022-08-17T08:21:25.341Z,25.04
2022-08-17T08:22:22.672Z,25.03
2022-08-17T08:23:23.885Z,25.06
2022-08-17T08:24:25.126Z,25.01
2022-08-17T08:25:24.457Z,25.01
2022-08-17T08:26:25.635Z,25.29
2022-08-17T08:27:25.821Z,25.31
2022-08-17T08:28:25.748Z,25.68
2022-08-17T08:29:24.596Z,25.81
2022-08-17T08:30:24.826Z,26.36
2022-08-17T08:31:25.930Z,26.36
2022-08-17T08:32:27.268Z,26.00
2022-08-17T08:33:26.534Z,25.78
2022-08-17T08:34:54.748Z,25.78
2022-08-17T08:35:27.067Z,26.38
2022-08-17T08:37:02.149Z,26.58
2022-08-17T08:37:34.441Z,26.74
2022-08-17T08:38:28.834Z,26.89
2022-08-17T08:39:27.183Z,26.90
2022-08-17T08:40:29.333Z,26.66
2022-08-17T08:41:27.642Z,26.89
2022-08-17T08:42:29.847Z,27.08
2022-08-17T08:43:29.124Z,27.12
2022-08-17T08:45:01.151Z,27.32
2022-08-17T08:45:31.631Z,27.11
2022-08-17T08:46:30.836Z,27.15
2022-08-17T08:47:30.979Z,27.36
2022-08-17T08:48:52.775Z,27.58
2022-08-17T08:49:59.572Z,27.45
2022-08-17T08:50:38.455Z,27.32
2022-08-17T08:51:33.118Z,27.51
2022-08-17T08:52:30.578Z,27.25
2022-08-17T08:53:31.297Z,27.40
2022-08-17T08:54:31.091Z,27.08
2022-08-17T08:55:33.291Z,27.52
2022-08-17T08:56:31.639Z,27.92
2022-08-17T08:57:34.492Z,28.10
2022-08-17T08:58:41.702Z,28.17
2022-08-17T08:59:33.420Z,28.33
2022-08-17T09:00:34.621Z,28.37
2022-08-17T09:01:33.137Z,28.17
2022-08-17T09:02:34.832Z,28.41
2022-08-17T09:03:51.519Z,28.37
2022-08-17T09:04:50.185Z,28.32
2022-08-17T09:05:37.251Z,28.15
2022-08-17T09:06:39.422Z,28.32
2022-08-17T09:07:36.642Z,27.95
2022-08-17T09:08:38.246Z,27.55
2022-08-17T09:09:37.090Z,27.26
2022-08-17T09:10:37.778Z,27.20
2022-08-17T09:12:02.521Z,26.95
2022-08-17T09:12:37.415Z,26.71
2022-08-17T09:13:40.628Z,26.75
2022-08-17T09:14:45.099Z,26.90
2022-08-17T09:15:38.233Z,27.10
2022-08-17T09:16:39.395Z,26.97
2022-08-17T09:17:39.575Z,26.44
2022-08-17T09:19:00.337Z,26.51
2022-08-17T09:19:39.536Z,26.58
2022-08-17T09:20:40.650Z,26.78
2022-08-17T09:21:47.908Z,27.22
2022-08-17T09:22:40.191Z,27.59
2022-08-17T09:23:40.905Z,27.75
2022-08-17T09:24:41.257Z,28.04
2022-08-17T09:25:41.918Z,28.38
2022-08-17T09:26:42.111Z,28.75
2022-08-17T09:27:40.659Z,28.60
2022-08-17T09:28:41.699Z,28.45
2022-08-17T09:29:41.185Z,28.79
2022-08-17T09:30:43.329Z,28.44
2022-08-17T09:31:49.150Z,28.29
2022-08-17T09:32:42.989Z,28.15
2022-08-17T09:33:45.320Z,28.12
2022-08-17T09:34:44.540Z,28.22
2022-08-17T09:35:42.783Z,28.49
2022-08-17T09:36:44.972Z,28.49
2022-08-17T09:37:45.174Z,28.59
2022-08-17T09:38:46.636Z,28.69
2022-08-17T09:39:45.602Z,28.76
2022-08-17T09:40:45.845Z,29.07
2022-08-17T09:41:49.265Z,29.26
2022-08-17T09:42:44.729Z,29.23
2022-08-17T09:43:48.899Z,28.93
2022-08-17T09:44:47.131Z,28.67
2022-08-17T09:45:47.308Z,28.32
2022-08-17T09:46:47.569Z,28.69
2022-08-17T09:47:47.799Z,28.85
2022-08-17T09:48:50.532Z,29.42
2022-08-17T09:49:48.720Z,29.87
2022-08-17T09:51:04.140Z,30.39
2022-08-17T09:51:48.381Z,30.63
2022-08-17T09:52:49.563Z,30.55
2022-08-17T09:53:50.833Z,30.78
2022-08-17T09:54:48.867Z,30.62
2022-08-17T09:55:48.604Z,30.32
2022-08-17T09:57:05.941Z,30.03
2022-08-17T09:57:50.319Z,30.09
2022-08-17T09:58:52.398Z,29.50
2022-08-17T09:59:49.718Z,28.93
2022-08-17T10:00:51.957Z,28.57
2022-08-17T10:01:50.378Z,28.49
2022-08-17T10:02:50.629Z,28.75
2022-08-17T10:03:53.797Z,29.01
2022-08-17T10:04:51.132Z,29.05
2022-08-17T10:05:56.478Z,29.07
2022-08-17T10:06:53.514Z,28.89
2022-08-17T10:07:52.132Z,28.96
2022-08-17T10:08:55.279Z,28.45
2022-08-17T10:09:52.477Z,28.33
2022-08-17T10:10:56.547Z,28.22
2022-08-17T10:11:52.995Z,27.82
2022-08-17T10:12:55.205Z,27.80
2022-08-17T10:13:59.492Z,28.17
2022-08-17T10:14:55.591Z,28.35
2022-08-17T10:15:55.778Z,28.49
2022-08-17T10:16:54.338Z,28.72
2022-08-17T10:17:54.580Z,28.81
2022-08-17T10:18:56.394Z,28.89
2022-08-17T10:19:57.075Z,28.84
2022-08-17T10:20:55.733Z,28.97
2022-08-17T10:22:01.136Z,28.88
2022-08-17T10:22:56.063Z,28.49
2022-08-17T10:23:59.224Z,28.26
2022-08-17T10:25:21.638Z,28.25
2022-08-17T10:25:57.806Z,28.35
2022-08-17T10:26:57.586Z,28.30
2022-08-17T10:27:59.304Z,28.38
2022-08-17T10:29:01.466Z,28.33
2022-08-17T10:29:58.887Z,28.48
2022-08-17T10:31:23.316Z,28.60
2022-08-17T10:31:59.463Z,28.17
2022-08-17T10:33:00.656Z,27.95
2022-08-17T10:34:00.035Z,27.89
2022-08-17T10:34:59.361Z,27.77
2022-08-17T10:35:59.598Z,27.85
2022-08-17T10:37:01.839Z,28.00
2022-08-17T10:38:00.148Z,28.02
2022-08-17T10:39:02.360Z,28.14
2022-08-17T10:40:00.716Z,27.95
2022-08-17T10:41:00.971Z,27.68
2022-08-17T10:42:03.128Z,27.52
2022-08-17T10:43:03.340Z,27.63
2022-08-17T10:44:38.095Z,27.70
2022-08-17T10:45:03.099Z,28.05
2022-08-17T10:46:10.317Z,28.19
2022-08-17T10:47:03.667Z,28.17
2022-08-17T10:48:06.679Z,28.41
2022-08-17T10:49:03.298Z,28.51
2022-08-17T10:50:03.538Z,28.74
2022-08-17T10:51:05.750Z,28.88
2022-08-17T10:52:05.913Z,28.78
2022-08-17T10:53:06.096Z,28.45
2022-08-17T10:54:06.279Z,28.44
2022-08-17T10:55:06.974Z,28.42
2022-08-17T10:56:07.163Z,28.26
2022-08-17T10:57:07.355Z,28.33
2022-08-17T10:58:07.552Z,28.08
2022-08-17T10:59:06.252Z,28.01
2022-08-17T11:00:06.507Z,28.10
2022-08-17T11:01:06.779Z,28.23
2022-08-17T11:02:08.932Z,28.30
2022-08-17T11:03:07.268Z,28.20
2022-08-17T11:04:07.526Z,28.48
2022-08-17T11:05:07.759Z,28.85
2022-08-17T11:06:08.010Z,28.84
2022-08-17T11:07:10.203Z,28.81
2022-08-17T11:08:10.435Z,28.86
2022-08-17T11:09:10.630Z,28.96
2022-08-17T11:10:09.080Z,28.93
2022-08-17T11:11:09.331Z,28.70
2022-08-17T11:12:11.514Z,28.81
2022-08-17T11:13:10.682Z,28.49
2022-08-17T11:14:11.832Z,28.48
2022-08-17T11:15:12.021Z,28.47
2022-08-17T11:16:11.731Z,28.47
2022-08-17T11:17:11.041Z,28.42
2022-08-17T11:18:15.184Z,28.51
2022-08-17T11:19:13.459Z,28.29
2022-08-17T11:20:13.630Z,28.14
2022-08-17T11:21:13.825Z,28.14
2022-08-17T11:22:14.510Z,28.12
2022-08-17T11:23:14.791Z,28.02
2022-08-17T11:24:13.111Z,27.96
2022-08-17T11:25:15.300Z,28.15
2022-08-17T11:26:15.485Z,28.07
2022-08-17T11:27:15.666Z,27.96
2022-08-17T11:28:16.902Z,28.07
2022-08-17T11:29:16.066Z,27.82
2022-08-17T11:30:16.738Z,27.78
2022-08-17T11:31:16.939Z,27.82
2022-08-17T11:32:15.369Z,27.74
2022-08-17T11:33:16.649Z,27.85
2022-08-17T11:34:17.818Z,27.77
2022-08-17T11:35:16.125Z,28.05
2022-08-17T11:36:16.353Z,28.37
2022-08-17T11:37:16.598Z,28.62
2022-08-17T11:38:17.705Z,28.70
2022-08-17T11:39:17.161Z,28.88
2022-08-17T11:40:17.482Z,28.76
2022-08-17T11:41:17.694Z,28.81
2022-08-17T11:42:17.930Z,28.93
2022-08-17T11:43:22.075Z,28.84
2022-08-17T11:44:21.476Z,28.85
2022-08-17T11:45:32.479Z,28.82
2022-08-17T11:46:20.225Z,28.72
2022-08-17T11:47:21.239Z,28.75
2022-08-17T11:48:28.157Z,28.97
2022-08-17T11:49:22.650Z,28.62
2022-08-17T11:50:25.787Z,28.82
2022-08-17T11:51:24.394Z,28.94
2022-08-17T11:52:20.723Z,29.01
2022-08-17T11:53:22.933Z,29.19
2022-08-17T11:54:32.751Z,29.16
2022-08-17T11:55:35.036Z,29.02
2022-08-17T11:56:25.705Z,28.88
2022-08-17T11:57:23.047Z,28.84
2022-08-17T11:58:24.252Z,28.74
2022-08-17T11:59:24.462Z,28.57
2022-08-17T12:00:23.018Z,28.59
2022-08-17T12:01:25.208Z,28.12
2022-08-17T12:02:27.379Z,28.10
2022-08-17T12:03:23.829Z,28.01
2022-08-17T12:04:26.038Z,28.20
2022-08-17T12:05:24.359Z,28.45
2022-08-17T12:06:30.517Z,28.49
2022-08-17T12:07:27.719Z,28.38
2022-08-17T12:08:25.161Z,28.26
2022-08-17T12:09:29.329Z,28.48
2022-08-17T12:10:25.650Z,28.54
2022-08-17T12:11:56.248Z,28.74
2022-08-17T12:12:29.131Z,28.97
2022-08-17T12:13:30.511Z,29.29
2022-08-17T12:14:51.320Z,29.51
2022-08-17T12:15:27.970Z,29.54
2022-08-17T12:16:29.161Z,29.44
2022-08-17T12:17:41.363Z,29.36
2022-08-17T12:18:28.855Z,29.51
2022-08-17T12:19:28.154Z,29.65
2022-08-17T12:20:28.400Z,29.69
2022-08-17T12:21:30.644Z,29.71
2022-08-17T12:22:31.917Z,29.66
2022-08-17T12:23:29.242Z,29.87
2022-08-17T12:24:29.482Z,30.12
2022-08-17T12:25:29.738Z,30.09
2022-08-17T12:26:31.925Z,30.02
2022-08-17T12:28:04.349Z,30.09
2022-08-17T12:28:31.478Z,30.12
2022-08-17T12:29:35.439Z,30.65
2022-08-17T12:30:32.007Z,30.77
2022-08-17T12:31:31.306Z,31.00
2022-08-17T12:32:32.480Z,31.05
2022-08-17T12:33:33.761Z,31.05
2022-08-17T12:34:32.068Z,31.12
2022-08-17T12:35:32.315Z,31.55
2022-08-17T12:36:34.508Z,31.74
2022-08-17T12:37:34.820Z,31.12
2022-08-17T12:38:33.698Z,30.88
2022-08-17T12:39:34.060Z,30.85
2022-08-17T12:40:33.831Z,30.99
2022-08-17T12:41:34.073Z,31.15
2022-08-17T12:42:36.334Z,31.51
2022-08-17T12:43:34.640Z,31.84
2022-08-17T12:44:34.892Z,32.18
2022-08-17T12:45:35.178Z,32.30
2022-08-17T12:46:35.425Z,32.19
2022-08-17T12:47:38.594Z,31.99
2022-08-17T12:48:35.910Z,31.62
2022-08-17T12:49:36.169Z,31.65
2022-08-17T12:50:36.409Z,31.92
2022-08-17T12:51:36.665Z,31.78
2022-08-17T12:52:39.856Z,31.59
2022-08-17T12:53:37.173Z,31.70
2022-08-17T12:54:38.306Z,31.71
2022-08-17T12:55:37.754Z,31.69